NORTHEAST SUFFOLK  -  Rip Current Statement Rip Current Statement        NORTHERN NASSAU  -  Rip Current Statement Rip Current Statement        NORTHERN QUEENS  -  Rip Current Statement Rip Current Statement        NORTHWEST SUFFOLK  -  Rip Current Statement Rip Current Statement        SOUTHEAST SUFFOLK  -  Rip Current Statement Rip Current Statement        SOUTHERN NASSAU  -  Rip Current Statement Rip Current Statement        SOUTHERN QUEENS  -  Rip Current Statement Rip Current Statement        SOUTHWEST SUFFOLK  -  Rip Current Statement Rip Current Statement      

Active alerts

Northern Queens
  Details for Northern Queens Rip Current Statement
Southern Queens
  Details for Southern Queens Rip Current Statement
Northern Nassau
  Details for Northern Nassau Rip Current Statement
Southern Nassau
  Details for Southern Nassau Rip Current Statement
Northwest Suffolk
  Details for Northwest Suffolk Rip Current Statement
Southwest Suffolk
  Details for Southwest Suffolk Rip Current Statement
Northeast Suffolk
  Details for Northeast Suffolk Rip Current Statement
Southeast Suffolk
  Details for Southeast Suffolk Rip Current Statement


WXM80 ListenWXM80 Stop

You find our weather info also at:

UK Metoffice

WeatherCloud

Weather Underground

Northeastern Weather Network

AWEKAS

Citizen Weather Observer Program (CWOP)

HAMweather, WeatherForYou, PWS Weather


Weather Underground History page Text

Daily Summary for January 2, 2018 Units:  English    Metric   Both
« Previous Day
Next Day »
Daily Weekly Monthly Yearly Custom
  High: Low: Average:
Temperature: 26.7 °F 15.4 °F 19.9 °F
Dew Point: 12.6 °F 5.8 °F 9.2 °F
Humidity: 69 % 53 % 63 %
Wind Speed: 13.0 mph 0.0 mph 5.2 mph
Wind Gust: 21.9 mph - -
Wind:- - WSW
Pressure: 30.41 in 30.29 in -
Precipitation: 0.00 in    
Historical Graphs
 
 
Tabular Data for January 2, 2018
Time Temperature Dew Point Pressure Wind Wind Speed Wind Gust Humidity Rainfall Rate (Hourly)
00:01 17.5 °F 6.7 °F 30.32 in NW 7.3 mph 15.0 mph 62 % 0.00 in
00:05 17.5 °F 7.0 °F 30.32 in West 6.5 mph 11.5 mph 63 % 0.00 in
00:12 17.3 °F 6.8 °F 30.32 in WSW 6.4 mph 17.3 mph 63 % 0.00 in
00:17 17.3 °F 6.8 °F 30.32 in WSW 7.1 mph 11.5 mph 63 % 0.00 in
00:18 17.3 °F 6.8 °F 30.32 in WSW 4.8 mph 15.0 mph 63 % 0.00 in
00:23 17.2 °F 7.1 °F 30.32 in WSW 7.9 mph 10.4 mph 64 % 0.00 in
00:28 17.2 °F 7.1 °F 30.32 in WSW 5.5 mph 15.0 mph 64 % 0.00 in
00:30 17.2 °F 7.1 °F 30.32 in NW 9.6 mph 15.0 mph 64 % 0.00 in
00:32 17.1 °F 7.0 °F 30.32 in West 10.1 mph 18.0 mph 64 % 0.00 in
00:41 17.1 °F 7.0 °F 30.31 in West 8.0 mph 13.8 mph 64 % 0.00 in
00:42 17.1 °F 7.0 °F 30.31 in NNW 1.7 mph 8.0 mph 64 % 0.00 in
00:48 17.1 °F 7.0 °F 30.31 in WNW 7.3 mph 12.0 mph 64 % 0.00 in
00:53 17.1 °F 7.3 °F 30.31 in WSW 10.7 mph 19.6 mph 65 % 0.00 in
00:58 17.1 °F 7.0 °F 30.31 in WSW 4.8 mph 12.7 mph 64 % 0.00 in
01:03 17.0 °F 6.9 °F 30.32 in West 4.7 mph 21.0 mph 64 % 0.00 in
01:05 17.0 °F 6.9 °F 30.32 in WSW 4.9 mph 15.0 mph 64 % 0.00 in
01:09 17.0 °F 7.3 °F 30.32 in WSW 6.0 mph 10.4 mph 65 % 0.00 in
01:11 17.0 °F 7.3 °F 30.31 in WSW 7.6 mph 13.8 mph 65 % 0.00 in
01:16 17.0 °F 7.3 °F 30.32 in NW 5.8 mph 12.7 mph 65 % 0.00 in
01:17 16.9 °F 7.2 °F 30.32 in West 6.7 mph 10.4 mph 65 % 0.00 in
01:22 16.9 °F 7.2 °F 30.32 in WNW 13.0 mph 19.6 mph 65 % 0.00 in
01:24 16.9 °F 7.2 °F 30.32 in WNW 7.7 mph 18.4 mph 65 % 0.00 in
01:25 16.9 °F 7.2 °F 30.32 in WSW 7.3 mph 11.5 mph 65 % 0.00 in
01:36 16.8 °F 7.1 °F 30.32 in SW 8.3 mph 21.9 mph 65 % 0.00 in
01:41 16.8 °F 7.1 °F 30.32 in WSW 8.6 mph 14.0 mph 65 % 0.00 in
01:49 16.7 °F 7.0 °F 30.32 in WSW 5.7 mph 10.4 mph 65 % 0.00 in
01:54 16.7 °F 7.0 °F 30.32 in WSW 5.0 mph 7.0 mph 65 % 0.00 in
01:58 16.7 °F 7.0 °F 30.32 in WNW 6.6 mph 10.4 mph 65 % 0.00 in
02:00 16.7 °F 7.0 °F 30.32 in NW 7.5 mph 12.0 mph 65 % 0.00 in
02:05 16.6 °F 7.2 °F 30.32 in NW 7.1 mph 11.5 mph 66 % 0.00 in
02:10 16.6 °F 6.9 °F 30.33 in NNW 5.2 mph 11.5 mph 65 % 0.00 in
02:11 16.6 °F 6.9 °F 30.32 in SSW 8.0 mph 15.0 mph 65 % 0.00 in
02:16 16.6 °F 7.2 °F 30.33 in SW 6.3 mph 15.0 mph 66 % 0.00 in
02:17 16.6 °F 7.2 °F 30.33 in WNW 7.5 mph 8.0 mph 66 % 0.00 in
02:22 16.6 °F 7.2 °F 30.33 in WSW 9.9 mph 20.7 mph 66 % 0.00 in
02:25 16.6 °F 7.2 °F 30.33 in South 5.7 mph 11.5 mph 66 % 0.00 in
02:29 16.6 °F 7.2 °F 30.33 in West 7.4 mph 15.0 mph 66 % 0.00 in
02:34 16.7 °F 7.6 °F 30.33 in WSW 8.9 mph 16.1 mph 67 % 0.00 in
02:38 16.7 °F 7.3 °F 30.33 in WNW 10.0 mph 15.0 mph 66 % 0.00 in
02:43 16.7 °F 7.3 °F 30.33 in WNW 7.1 mph 19.6 mph 66 % 0.00 in
02:44 16.7 °F 7.3 °F 30.33 in WNW 8.5 mph 15.0 mph 66 % 0.00 in
02:49 16.7 °F 7.3 °F 30.33 in WNW 10.3 mph 21.9 mph 66 % 0.00 in
02:50 16.7 °F 7.3 °F 30.33 in WSW 8.9 mph 18.4 mph 66 % 0.00 in
02:55 16.7 °F 7.3 °F 30.34 in West 4.5 mph 11.5 mph 66 % 0.00 in
02:57 16.7 °F 7.3 °F 30.33 in WSW 7.7 mph 17.3 mph 66 % 0.00 in
03:02 16.7 °F 7.3 °F 30.34 in WNW 8.6 mph 18.4 mph 66 % 0.00 in
03:04 16.7 °F 7.3 °F 30.34 in NW 11.1 mph 21.9 mph 66 % 0.00 in
03:09 16.7 °F 7.0 °F 30.34 in SSE 3.5 mph 11.5 mph 65 % 0.00 in
03:14 16.6 °F 6.5 °F 30.34 in NW 4.6 mph 11.5 mph 64 % 0.00 in
03:16 16.6 °F 6.9 °F 30.34 in WSW 3.7 mph 10.4 mph 65 % 0.00 in
03:20 16.6 °F 7.2 °F 30.34 in NNW 6.1 mph 12.7 mph 66 % 0.00 in
03:25 16.5 °F 6.8 °F 30.34 in West 3.5 mph 11.5 mph 65 % 0.00 in
03:26 16.5 °F 6.8 °F 30.34 in West 5.9 mph 11.5 mph 65 % 0.00 in
03:28 16.5 °F 7.1 °F 30.34 in West 10.2 mph 19.6 mph 66 % 0.00 in
03:33 16.4 °F 6.3 °F 30.34 in NW 9.8 mph 17.3 mph 64 % 0.00 in
03:34 16.4 °F 6.3 °F 30.34 in NW 8.1 mph 17.3 mph 64 % 0.00 in
03:39 16.4 °F 6.3 °F 30.34 in WSW 5.8 mph 11.5 mph 64 % 0.00 in
03:42 16.4 °F 6.7 °F 30.34 in WSW 7.3 mph 19.6 mph 65 % 0.00 in
03:43 16.3 °F 6.6 °F 30.34 in NW 6.4 mph 19.6 mph 65 % 0.00 in
03:48 16.3 °F 6.6 °F 30.34 in WNW 5.6 mph 11.5 mph 65 % 0.00 in
03:53 16.3 °F 6.6 °F 30.34 in WNW 7.1 mph 12.0 mph 65 % 0.00 in
04:03 16.3 °F 6.6 °F 30.34 in WNW 6.2 mph 12.7 mph 65 % 0.00 in
04:06 16.2 °F 6.5 °F 30.34 in West 6.4 mph 13.8 mph 65 % 0.00 in
04:08 16.3 °F 6.6 °F 30.33 in West 5.8 mph 16.1 mph 65 % 0.00 in
04:13 16.3 °F 6.6 °F 30.33 in NW 7.9 mph 13.8 mph 65 % 0.00 in
04:16 16.3 °F 6.6 °F 30.33 in WSW 11.8 mph 19.6 mph 65 % 0.00 in
04:19 16.3 °F 6.6 °F 30.33 in SW 6.9 mph 15.0 mph 65 % 0.00 in
04:22 16.3 °F 6.6 °F 30.34 in NNW 6.0 mph 13.8 mph 65 % 0.00 in
04:27 16.3 °F 6.2 °F 30.33 in West 10.2 mph 16.1 mph 64 % 0.00 in
04:28 16.3 °F 6.2 °F 30.33 in WSW 7.7 mph 18.4 mph 64 % 0.00 in
04:33 16.3 °F 5.9 °F 30.34 in WNW 9.2 mph 16.1 mph 63 % 0.00 in
04:36 16.3 °F 6.2 °F 30.34 in NW 6.0 mph 12.0 mph 64 % 0.00 in
04:42 16.3 °F 5.9 °F 30.34 in WNW 9.0 mph 11.5 mph 63 % 0.00 in
04:44 16.3 °F 6.2 °F 30.34 in WNW 6.2 mph 16.1 mph 64 % 0.00 in
04:49 16.2 °F 5.8 °F 30.34 in NW 9.3 mph 17.3 mph 63 % 0.00 in
04:50 16.2 °F 5.8 °F 30.34 in WNW 9.2 mph 17.3 mph 63 % 0.00 in
04:55 16.2 °F 5.8 °F 30.34 in SW 8.1 mph 12.7 mph 63 % 0.00 in
04:58 16.2 °F 6.1 °F 30.34 in West 4.2 mph 13.8 mph 64 % 0.00 in
05:03 16.1 °F 6.1 °F 30.35 in West 7.9 mph 15.0 mph 64 % 0.00 in
05:04 16.1 °F 6.1 °F 30.35 in NW 4.8 mph 15.0 mph 64 % 0.00 in
05:09 16.1 °F 6.4 °F 30.35 in NW 6.4 mph 12.7 mph 65 % 0.00 in
05:12 16.1 °F 6.1 °F 30.35 in West 6.0 mph 11.5 mph 64 % 0.00 in
05:17 16.1 °F 6.4 °F 30.35 in NNW 8.2 mph 12.7 mph 65 % 0.00 in
05:18 16.1 °F 6.4 °F 30.35 in NNW 9.0 mph 17.3 mph 65 % 0.00 in
05:23 16.0 °F 6.3 °F 30.35 in WSW 5.4 mph 12.7 mph 65 % 0.00 in
05:24 16.0 °F 6.3 °F 30.35 in WSW 5.7 mph 12.7 mph 65 % 0.00 in
05:29 15.9 °F 6.2 °F 30.35 in SSW 7.6 mph 12.7 mph 65 % 0.00 in
05:34 15.8 °F 6.1 °F 30.36 in WSW 9.9 mph 18.4 mph 65 % 0.00 in
05:35 15.8 °F 6.1 °F 30.36 in WSW 9.6 mph 18.4 mph 65 % 0.00 in
05:40 15.7 °F 6.0 °F 30.36 in WNW 5.2 mph 9.2 mph 65 % 0.00 in
05:42 15.7 °F 6.0 °F 30.36 in NW 5.2 mph 10.4 mph 65 % 0.00 in
05:47 15.7 °F 6.3 °F 30.36 in WSW 3.0 mph 10.4 mph 66 % 0.00 in
05:48 15.6 °F 6.3 °F 30.36 in West 7.4 mph 14.0 mph 66 % 0.00 in
05:56 15.5 °F 5.8 °F 30.36 in NW 1.7 mph 6.9 mph 65 % 0.00 in
06:01 15.5 °F 5.8 °F 30.37 in WNW 5.4 mph 11.5 mph 65 % 0.00 in
06:05 15.5 °F 6.5 °F 30.37 in WSW 3.8 mph 11.5 mph 67 % 0.00 in
06:10 15.4 °F 6.4 °F 30.37 in WNW 7.5 mph 16.1 mph 67 % 0.00 in
06:15 15.4 °F 6.4 °F 30.37 in NW 4.1 mph 5.8 mph 67 % 0.00 in
06:20 15.4 °F 6.1 °F 30.37 in NW 7.7 mph 17.3 mph 66 % 0.00 in
06:25 15.4 °F 6.1 °F 30.37 in NW 6.7 mph 18.4 mph 66 % 0.00 in
06:27 15.4 °F 6.1 °F 30.38 in West 5.4 mph 8.1 mph 66 % 0.00 in
06:33 15.4 °F 6.1 °F 30.38 in West 7.5 mph 13.0 mph 66 % 0.00 in
06:37 15.4 °F 6.1 °F 30.38 in NW 7.5 mph 12.7 mph 66 % 0.00 in
06:39 15.4 °F 6.1 °F 30.38 in WNW 6.1 mph 13.8 mph 66 % 0.00 in
06:44 15.4 °F 6.1 °F 30.38 in West 8.4 mph 15.0 mph 66 % 0.00 in
06:49 15.5 °F 6.2 °F 30.38 in NW 5.7 mph 10.0 mph 66 % 0.00 in
06:54 15.5 °F 6.2 °F 30.38 in West 6.0 mph 13.8 mph 66 % 0.00 in
06:59 15.6 °F 6.3 °F 30.39 in NW 8.9 mph 16.1 mph 66 % 0.00 in
07:00 15.6 °F 6.3 °F 30.39 in NW 8.4 mph 12.7 mph 66 % 0.00 in
07:02 15.6 °F 6.3 °F 30.38 in NW 4.5 mph 11.5 mph 66 % 0.00 in
07:06 15.6 °F 6.6 °F 30.38 in West 7.7 mph 12.7 mph 67 % 0.00 in
07:11 15.6 °F 6.3 °F 30.38 in West 2.7 mph 19.6 mph 66 % 0.00 in
07:16 15.5 °F 6.2 °F 30.38 in WNW 6.5 mph 11.0 mph 66 % 0.00 in
07:26 15.5 °F 6.5 °F 30.39 in WNW 3.2 mph 7.0 mph 67 % 0.00 in
07:31 15.4 °F 6.4 °F 30.39 in WSW 7.2 mph 14.0 mph 67 % 0.00 in
07:37 15.5 °F 6.8 °F 30.39 in WSW 6.5 mph 10.4 mph 68 % 0.00 in
07:38 15.5 °F 6.8 °F 30.40 in SW 4.1 mph 10.4 mph 68 % 0.00 in
07:39 15.5 °F 6.8 °F 30.40 in WNW 5.1 mph 9.2 mph 68 % 0.00 in
07:43 15.5 °F 6.8 °F 30.40 in West 2.2 mph 7.0 mph 68 % 0.00 in
07:47 15.6 °F 6.9 °F 30.39 in WSW 4.5 mph 11.5 mph 68 % 0.00 in
07:52 15.6 °F 6.9 °F 30.39 in West 2.8 mph 5.0 mph 68 % 0.00 in
07:57 15.6 °F 6.9 °F 30.39 in SW 5.5 mph 8.0 mph 68 % 0.00 in
07:59 15.6 °F 7.2 °F 30.39 in West 7.6 mph 14.0 mph 69 % 0.00 in
08:04 15.7 °F 7.0 °F 30.40 in NW 6.3 mph 13.8 mph 68 % 0.00 in
08:07 15.7 °F 7.3 °F 30.40 in West 6.5 mph 11.5 mph 69 % 0.00 in
08:10 15.7 °F 7.3 °F 30.40 in WNW 5.8 mph 9.2 mph 69 % 0.00 in
08:15 15.8 °F 7.4 °F 30.40 in West 7.0 mph 11.5 mph 69 % 0.00 in
08:20 15.8 °F 7.1 °F 30.40 in West 5.5 mph 8.0 mph 68 % 0.00 in
08:22 15.8 °F 7.1 °F 30.40 in WSW 8.4 mph 12.0 mph 68 % 0.00 in
08:32 16.0 °F 7.3 °F 30.40 in West 7.4 mph 9.2 mph 68 % 0.00 in
08:33 16.1 °F 7.4 °F 30.40 in WSW 7.0 mph 16.0 mph 68 % 0.00 in
08:37 16.2 °F 7.5 °F 30.40 in West 6.0 mph 11.0 mph 68 % 0.00 in
08:40 16.2 °F 7.8 °F 30.40 in SW 3.9 mph 8.0 mph 69 % 0.00 in
08:45 16.3 °F 7.6 °F 30.40 in WNW 6.0 mph 12.0 mph 68 % 0.00 in
08:50 16.4 °F 7.7 °F 30.40 in WSW 7.4 mph 11.5 mph 68 % 0.00 in
08:55 16.5 °F 7.8 °F 30.40 in NW 4.8 mph 10.0 mph 68 % 0.00 in
08:58 16.6 °F 7.9 °F 30.40 in NW 6.2 mph 11.5 mph 68 % 0.00 in
09:03 16.7 °F 8.0 °F 30.40 in WSW 3.7 mph 10.4 mph 68 % 0.00 in
09:06 16.7 °F 8.0 °F 30.40 in West 6.0 mph 12.0 mph 68 % 0.00 in
09:08 16.8 °F 8.1 °F 30.41 in WSW 4.2 mph 8.1 mph 68 % 0.00 in
09:12 16.9 °F 8.2 °F 30.41 in WNW 7.8 mph 11.5 mph 68 % 0.00 in
09:18 17.1 °F 8.3 °F 30.41 in WNW 5.7 mph 10.4 mph 68 % 0.00 in
09:23 17.2 °F 8.4 °F 30.40 in West 5.0 mph 9.2 mph 68 % 0.00 in
09:25 17.3 °F 8.5 °F 30.40 in SW 2.7 mph 5.8 mph 68 % 0.00 in
09:30 17.5 °F 8.7 °F 30.41 in WNW 8.5 mph 11.5 mph 68 % 0.00 in
09:32 17.5 °F 8.7 °F 30.41 in WSW 6.0 mph 17.0 mph 68 % 0.00 in
09:34 17.6 °F 8.8 °F 30.41 in WNW 7.7 mph 17.3 mph 68 % 0.00 in
09:42 18.0 °F 8.9 °F 30.41 in West 6.3 mph 11.5 mph 67 % 0.00 in
09:47 18.2 °F 9.1 °F 30.41 in West 2.6 mph 4.6 mph 67 % 0.00 in
09:50 18.3 °F 9.2 °F 30.41 in NW 7.2 mph 10.4 mph 67 % 0.00 in
09:51 18.3 °F 9.2 °F 30.41 in WNW 6.3 mph 11.0 mph 67 % 0.00 in
09:56 18.6 °F 9.1 °F 30.41 in WSW 8.5 mph 12.0 mph 66 % 0.00 in
10:01 18.7 °F 9.2 °F 30.41 in WSW 3.5 mph 8.1 mph 66 % 0.00 in
10:12 19.3 °F 9.4 °F 30.41 in WNW 4.1 mph 13.8 mph 65 % 0.00 in
10:15 19.4 °F 9.5 °F 30.41 in WSW 2.5 mph 4.6 mph 65 % 0.00 in
10:20 19.7 °F 9.8 °F 30.40 in SW 3.5 mph 9.2 mph 65 % 0.00 in
10:25 20.0 °F 10.1 °F 30.40 in WNW 0.8 mph 9.2 mph 65 % 0.00 in
10:28 20.1 °F 10.2 °F 30.41 in WSW 5.3 mph 14.0 mph 65 % 0.00 in
10:33 20.3 °F 9.7 °F 30.40 in SW 5.5 mph 14.0 mph 63 % 0.00 in
10:35 20.4 °F 9.8 °F 30.40 in NW 3.9 mph 10.4 mph 63 % 0.00 in
10:41 20.4 °F 9.4 °F 30.40 in West 5.5 mph 9.2 mph 62 % 0.00 in
10:46 20.5 °F 9.9 °F 30.40 in WSW 4.5 mph 7.0 mph 63 % 0.00 in
10:49 20.6 °F 9.6 °F 30.39 in SSW 8.0 mph 11.5 mph 62 % 0.00 in
10:54 20.6 °F 9.6 °F 30.39 in WSW 7.8 mph 11.5 mph 62 % 0.00 in
10:55 20.5 °F 9.5 °F 30.39 in WSW 8.3 mph 11.5 mph 62 % 0.00 in
11:02 20.5 °F 10.2 °F 30.39 in West 4.6 mph 10.4 mph 64 % 0.00 in
11:07 20.6 °F 10.0 °F 30.38 in WNW 5.9 mph 8.1 mph 63 % 0.00 in
11:10 20.6 °F 10.0 °F 30.39 in NW 5.6 mph 8.1 mph 63 % 0.00 in
11:11 20.6 °F 10.0 °F 30.38 in West 4.9 mph 8.1 mph 63 % 0.00 in
11:16 20.7 °F 10.1 °F 30.38 in WNW 3.1 mph 4.6 mph 63 % 0.00 in
11:19 20.7 °F 10.1 °F 30.38 in WNW 4.4 mph 11.5 mph 63 % 0.00 in
11:26 20.7 °F 10.1 °F 30.38 in WNW 4.2 mph 9.2 mph 63 % 0.00 in
11:31 20.7 °F 10.1 °F 30.37 in WNW 3.6 mph 10.4 mph 63 % 0.00 in
11:36 20.6 °F 10.0 °F 30.37 in West 8.1 mph 16.1 mph 63 % 0.00 in
11:41 20.7 °F 10.1 °F 30.37 in WNW 6.1 mph 8.1 mph 63 % 0.00 in
11:50 20.6 °F 9.6 °F 30.36 in SW 4.7 mph 11.5 mph 62 % 0.00 in
11:55 20.6 °F 10.0 °F 30.36 in West 5.6 mph 10.0 mph 63 % 0.00 in
11:57 20.6 °F 10.0 °F 30.36 in WSW 5.6 mph 10.4 mph 63 % 0.00 in
12:02 20.7 °F 10.1 °F 30.36 in WNW 5.3 mph 9.2 mph 63 % 0.00 in
12:07 20.9 °F 10.3 °F 30.35 in WNW 5.4 mph 11.0 mph 63 % 0.00 in
12:09 20.9 °F 10.3 °F 30.35 in NW 8.8 mph 11.5 mph 63 % 0.00 in
12:14 21.2 °F 10.2 °F 30.35 in SW 6.0 mph 12.7 mph 62 % 0.00 in
12:19 21.5 °F 10.5 °F 30.35 in WNW 6.0 mph 6.9 mph 62 % 0.00 in
12:22 21.6 °F 10.9 °F 30.35 in West 4.2 mph 8.1 mph 63 % 0.00 in
12:27 22.0 °F 11.3 °F 30.35 in SSW 2.7 mph 10.4 mph 63 % 0.00 in
12:28 22.1 °F 11.4 °F 30.35 in West 5.2 mph 8.1 mph 63 % 0.00 in
12:33 22.3 °F 11.2 °F 30.35 in NW 7.8 mph 11.5 mph 62 % 0.00 in
12:34 22.5 °F 11.4 °F 30.35 in West 5.8 mph 11.5 mph 62 % 0.00 in
12:36 22.6 °F 11.2 °F 30.35 in West 2.6 mph 9.2 mph 61 % 0.00 in
12:41 23.0 °F 11.5 °F 30.35 in WSW 8.2 mph 15.0 mph 61 % 0.00 in
12:47 23.3 °F 11.4 °F 30.34 in WNW 4.8 mph 12.0 mph 60 % 0.00 in
12:52 23.5 °F 11.3 °F 30.34 in West 6.8 mph 10.4 mph 59 % 0.00 in
12:54 23.5 °F 11.3 °F 30.34 in NW 4.8 mph 8.1 mph 59 % 0.00 in
12:55 23.5 °F 11.3 °F 30.33 in West 5.4 mph 9.2 mph 59 % 0.00 in
13:00 23.7 °F 11.4 °F 30.33 in WNW 3.3 mph 9.2 mph 59 % 0.00 in
13:02 23.7 °F 11.4 °F 30.33 in NW 5.9 mph 13.0 mph 59 % 0.00 in
13:06 23.9 °F 11.6 °F 30.33 in West 9.8 mph 12.7 mph 59 % 0.00 in
13:11 24.1 °F 11.4 °F 30.33 in SW 3.2 mph 5.0 mph 58 % 0.00 in
13:13 24.2 °F 11.5 °F 30.33 in WSW 8.4 mph 12.7 mph 58 % 0.00 in
13:18 24.4 °F 11.7 °F 30.33 in West 4.4 mph 9.2 mph 58 % 0.00 in
13:23 24.6 °F 11.9 °F 30.33 in West 7.0 mph 11.5 mph 58 % 0.00 in
13:26 24.8 °F 11.7 °F 30.33 in WNW 5.1 mph 6.9 mph 57 % 0.00 in
13:31 25.1 °F 12.0 °F 30.32 in West 7.8 mph 12.7 mph 57 % 0.00 in
13:33 25.2 °F 12.1 °F 30.32 in NW 6.9 mph 12.0 mph 57 % 0.00 in
13:34 25.3 °F 12.2 °F 30.32 in NW 6.2 mph 11.5 mph 57 % 0.00 in
13:39 25.6 °F 12.5 °F 30.32 in West 6.7 mph 11.5 mph 57 % 0.00 in
13:40 25.6 °F 12.1 °F 30.32 in WNW 5.8 mph 10.4 mph 56 % 0.00 in
13:45 25.8 °F 11.8 °F 30.31 in WNW 2.9 mph 6.0 mph 55 % 0.00 in
13:52 26.2 °F 12.6 °F 30.32 in WNW 6.9 mph 11.5 mph 56 % 0.00 in
13:53 26.2 °F 12.2 °F 30.32 in WNW 2.1 mph 3.5 mph 55 % 0.00 in
13:58 26.4 °F 12.4 °F 30.32 in WNW 3.3 mph 11.5 mph 55 % 0.00 in
14:00 26.4 °F 12.4 °F 30.32 in WSW 5.7 mph 11.5 mph 55 % 0.00 in
14:05 26.5 °F 12.5 °F 30.32 in West 6.3 mph 9.2 mph 55 % 0.00 in
14:10 26.6 °F 12.2 °F 30.32 in WSW 5.1 mph 9.2 mph 54 % 0.00 in
14:12 26.7 °F 12.3 °F 30.32 in West 5.1 mph 8.1 mph 54 % 0.00 in
14:17 26.7 °F 11.8 °F 30.32 in WNW 6.8 mph 11.5 mph 53 % 0.00 in
14:22 26.7 °F 12.3 °F 30.32 in WNW 5.4 mph 9.2 mph 54 % 0.00 in
14:28 26.7 °F 12.3 °F 30.31 in WSW 5.6 mph 5.6 mph 54 % 0.00 in
14:33 26.6 °F 12.2 °F 30.31 in SW 3.3 mph 9.2 mph 54 % 0.00 in
14:35 26.6 °F 12.2 °F 30.31 in WNW 4.5 mph 8.1 mph 54 % 0.00 in
14:39 26.6 °F 12.2 °F 30.32 in West 5.2 mph 9.0 mph 54 % 0.00 in
14:43 26.5 °F 12.1 °F 30.31 in West 4.5 mph 11.0 mph 54 % 0.00 in
14:46 26.5 °F 12.1 °F 30.31 in SW 5.4 mph 11.5 mph 54 % 0.00 in
14:56 26.4 °F 12.4 °F 30.31 in WSW 5.8 mph 10.0 mph 55 % 0.00 in
14:58 26.3 °F 12.3 °F 30.31 in WSW 4.6 mph 10.4 mph 55 % 0.00 in
15:03 26.2 °F 12.2 °F 30.31 in West 4.6 mph 7.0 mph 55 % 0.00 in
15:08 26.1 °F 12.1 °F 30.31 in SW 2.9 mph 8.1 mph 55 % 0.00 in
15:14 26.0 °F 12.0 °F 30.31 in SW 2.3 mph 5.8 mph 55 % 0.00 in
15:20 26.0 °F 12.0 °F 30.31 in WSW 3.0 mph 9.2 mph 55 % 0.00 in
15:25 25.8 °F 11.8 °F 30.31 in SSW 5.1 mph 8.0 mph 55 % 0.00 in
15:26 25.8 °F 11.8 °F 30.31 in WSW 5.2 mph 9.2 mph 55 % 0.00 in
15:30 25.7 °F 11.7 °F 30.31 in SW 4.3 mph 10.4 mph 55 % 0.00 in
15:34 25.6 °F 11.7 °F 30.31 in SW 4.2 mph 8.1 mph 55 % 0.00 in
15:40 25.5 °F 11.6 °F 30.31 in SSW 5.1 mph 8.0 mph 55 % 0.00 in
15:45 25.4 °F 11.5 °F 30.31 in SW 5.1 mph 10.4 mph 55 % 0.00 in
15:46 25.4 °F 11.5 °F 30.31 in West 4.7 mph 11.5 mph 55 % 0.00 in
15:52 25.3 °F 11.4 °F 30.31 in SW 5.2 mph 8.1 mph 55 % 0.00 in
15:56 25.3 °F 11.8 °F 30.31 in SW 3.9 mph 6.9 mph 56 % 0.00 in
16:03 25.2 °F 11.3 °F 30.31 in SW 4.6 mph 8.0 mph 55 % 0.00 in
16:07 25.1 °F 11.2 °F 30.31 in WSW 7.3 mph 11.5 mph 55 % 0.00 in
16:12 25.1 °F 11.2 °F 30.31 in SW 4.7 mph 6.9 mph 55 % 0.00 in
16:17 25.0 °F 11.1 °F 30.31 in SSW 2.3 mph 5.8 mph 55 % 0.00 in
16:23 24.9 °F 11.4 °F 30.30 in SW 3.8 mph 6.9 mph 56 % 0.00 in
16:28 24.8 °F 11.3 °F 30.30 in WSW 1.2 mph 4.6 mph 56 % 0.00 in
16:30 24.8 °F 11.3 °F 30.30 in SW 2.8 mph 3.5 mph 56 % 0.00 in
16:34 24.7 °F 11.2 °F 30.30 in SW 1.3 mph 3.5 mph 56 % 0.00 in
16:37 24.7 °F 11.2 °F 30.30 in SW 2.1 mph 5.8 mph 56 % 0.00 in
16:42 24.5 °F 11.0 °F 30.30 in WSW 2.8 mph 6.9 mph 56 % 0.00 in
16:46 24.4 °F 10.9 °F 30.30 in SW 0.2 mph 3.5 mph 56 % 0.00 in
16:51 24.3 °F 11.2 °F 30.30 in SSW 2.5 mph 4.6 mph 57 % 0.00 in
16:56 24.2 °F 11.1 °F 30.30 in SW 0.1 mph 1.2 mph 57 % 0.00 in
16:58 24.1 °F 11.0 °F 30.29 in SSW 2.7 mph 6.0 mph 57 % 0.00 in
17:01 24.0 °F 11.0 °F 30.29 in WSW 3.9 mph 5.0 mph 57 % 0.00 in
17:05 23.9 °F 10.9 °F 30.30 in SW 2.2 mph 5.8 mph 57 % 0.00 in
17:08 23.8 °F 11.2 °F 30.30 in SSW 4.2 mph 9.2 mph 58 % 0.00 in
17:11 23.8 °F 11.2 °F 30.30 in SW 3.0 mph 9.0 mph 58 % 0.00 in
17:16 23.7 °F 11.1 °F 30.30 in West 0.9 mph 4.6 mph 58 % 0.00 in
17:21 23.6 °F 11.0 °F 30.30 in SSW 1.9 mph 3.5 mph 58 % 0.00 in
17:24 23.6 °F 11.0 °F 30.30 in SW 0.2 mph 4.6 mph 58 % 0.00 in
17:29 23.5 °F 11.3 °F 30.30 in SW 2.5 mph 4.6 mph 59 % 0.00 in
17:33 23.5 °F 11.3 °F 30.30 in South 2.4 mph 4.6 mph 59 % 0.00 in
17:38 23.4 °F 11.2 °F 30.30 in SSW 2.2 mph 3.5 mph 59 % 0.00 in
17:40 23.3 °F 11.1 °F 30.30 in SSW 1.2 mph 3.5 mph 59 % 0.00 in
17:45 23.2 °F 11.0 °F 30.30 in SW 1.0 mph 3.5 mph 59 % 0.00 in
17:49 23.1 °F 10.9 °F 30.30 in SSW 0.4 mph 2.3 mph 59 % 0.00 in
17:50 23.1 °F 11.3 °F 30.30 in Calm   1.2 mph 60 % 0.00 in
17:54 23.0 °F 11.2 °F 30.30 in Calm   3.5 mph 60 % 0.00 in
17:57 22.9 °F 11.1 °F 30.30 in Calm   2.3 mph 60 % 0.00 in
18:01 22.8 °F 11.0 °F 30.30 in Calm     60 % 0.00 in
18:07 22.7 °F 11.3 °F 30.30 in SSW 2.0 mph 6.9 mph 61 % 0.00 in
18:12 22.5 °F 11.1 °F 30.30 in SW 1.3 mph 3.5 mph 61 % 0.00 in
18:16 22.4 °F 11.0 °F 30.30 in WSW 1.0 mph 4.0 mph 61 % 0.00 in
18:21 22.4 °F 11.3 °F 30.30 in WSW 1.5 mph 6.9 mph 62 % 0.00 in
18:22 22.4 °F 11.3 °F 30.30 in SSW 2.2 mph 6.9 mph 62 % 0.00 in
18:23 22.4 °F 11.3 °F 30.30 in WSW 3.8 mph 6.9 mph 62 % 0.00 in
18:28 22.4 °F 11.3 °F 30.30 in SW 2.2 mph 6.9 mph 62 % 0.00 in
18:30 22.4 °F 11.3 °F 30.30 in SSW 4.8 mph 6.9 mph 62 % 0.00 in
18:31 22.3 °F 11.2 °F 30.30 in SSW 4.5 mph 11.5 mph 62 % 0.00 in
18:36 22.4 °F 11.7 °F 30.30 in SW 5.0 mph 10.0 mph 63 % 0.00 in
18:41 22.4 °F 11.3 °F 30.30 in SSW 2.0 mph 10.0 mph 62 % 0.00 in
18:46 22.5 °F 11.4 °F 30.30 in SW 6.1 mph 11.5 mph 62 % 0.00 in
18:48 22.5 °F 11.4 °F 30.30 in SW 3.3 mph 10.4 mph 62 % 0.00 in
18:50 22.5 °F 11.8 °F 30.30 in South 1.2 mph 4.0 mph 63 % 0.00 in
18:55 22.5 °F 11.4 °F 30.30 in SW 5.0 mph 10.4 mph 62 % 0.00 in
19:00 22.5 °F 11.8 °F 30.30 in WSW 4.7 mph 7.0 mph 63 % 0.00 in
19:05 22.6 °F 11.5 °F 30.30 in WSW 2.7 mph 8.0 mph 62 % 0.00 in
19:06 22.5 °F 11.4 °F 30.30 in SSW 3.6 mph 10.0 mph 62 % 0.00 in
19:11 22.5 °F 11.4 °F 30.30 in WSW 3.3 mph 4.6 mph 62 % 0.00 in
19:17 22.5 °F 11.4 °F 30.30 in SSW 5.5 mph 9.0 mph 62 % 0.00 in
19:20 22.5 °F 11.4 °F 30.30 in South 3.1 mph 10.4 mph 62 % 0.00 in
19:21 22.5 °F 11.4 °F 30.30 in West 1.4 mph 4.6 mph 62 % 0.00 in
19:27 22.5 °F 11.4 °F 30.30 in SW 4.6 mph 5.8 mph 62 % 0.00 in
19:29 22.4 °F 11.3 °F 30.30 in SW 4.6 mph 8.1 mph 62 % 0.00 in
19:30 22.4 °F 11.3 °F 30.30 in SW 5.4 mph 9.2 mph 62 % 0.00 in
19:34 22.4 °F 11.3 °F 30.30 in WSW 4.4 mph 12.7 mph 62 % 0.00 in
19:39 22.4 °F 11.3 °F 30.30 in SW 3.6 mph 8.0 mph 62 % 0.00 in
19:46 22.3 °F 11.6 °F 30.30 in SW 3.7 mph 6.9 mph 63 % 0.00 in
19:51 22.3 °F 11.6 °F 30.30 in SSW 1.5 mph 4.6 mph 63 % 0.00 in
19:53 22.2 °F 11.5 °F 30.30 in WSW 2.3 mph 3.5 mph 63 % 0.00 in
19:57 22.2 °F 11.1 °F 30.30 in SW 3.1 mph 5.8 mph 62 % 0.00 in
20:01 22.1 °F 11.1 °F 30.30 in SSW 0.5 mph 3.5 mph 62 % 0.00 in
20:06 22.0 °F 11.0 °F 30.30 in SW 2.8 mph 4.6 mph 62 % 0.00 in
20:09 22.0 °F 11.0 °F 30.30 in SW 1.2 mph 3.5 mph 62 % 0.00 in
20:15 21.9 °F 11.2 °F 30.30 in South 2.2 mph 3.5 mph 63 % 0.00 in
20:20 21.8 °F 11.1 °F 30.30 in SW 2.8 mph 5.8 mph 63 % 0.00 in
20:23 21.7 °F 11.0 °F 30.30 in SSW 5.4 mph 6.9 mph 63 % 0.00 in
20:28 21.5 °F 10.8 °F 30.30 in SW 2.9 mph 6.9 mph 63 % 0.00 in
20:35 21.4 °F 11.1 °F 30.30 in SW 6.2 mph 9.2 mph 64 % 0.00 in
20:40 21.3 °F 11.0 °F 30.31 in SSW 5.8 mph 8.0 mph 64 % 0.00 in
20:45 21.3 °F 11.0 °F 30.31 in SW 6.0 mph 9.0 mph 64 % 0.00 in
20:50 21.3 °F 10.7 °F 30.31 in WSW 5.4 mph 7.0 mph 63 % 0.00 in
20:51 21.3 °F 10.7 °F 30.30 in WSW 5.9 mph 9.2 mph 63 % 0.00 in
20:52 21.3 °F 10.7 °F 30.31 in WSW 4.7 mph 9.0 mph 63 % 0.00 in
20:57 21.3 °F 10.7 °F 30.31 in WSW 6.9 mph 16.1 mph 63 % 0.00 in
21:02 21.3 °F 10.7 °F 30.31 in SW 4.4 mph 11.5 mph 63 % 0.00 in
21:03 21.3 °F 10.3 °F 30.31 in SSW 6.1 mph 8.1 mph 62 % 0.00 in
21:08 21.3 °F 10.3 °F 30.31 in South 4.6 mph 8.1 mph 62 % 0.00 in
21:10 21.3 °F 10.3 °F 30.31 in SW 6.4 mph 8.1 mph 62 % 0.00 in
21:16 21.3 °F 10.7 °F 30.31 in WSW 6.0 mph 12.0 mph 63 % 0.00 in
21:17 21.3 °F 10.7 °F 30.31 in SSW 4.8 mph 11.5 mph 63 % 0.00 in
21:19 21.3 °F 10.7 °F 30.31 in WSW 5.5 mph 12.0 mph 63 % 0.00 in
21:23 21.2 °F 10.6 °F 30.31 in SW 2.2 mph 6.9 mph 63 % 0.00 in
21:24 21.2 °F 10.6 °F 30.31 in SW 2.8 mph 4.0 mph 63 % 0.00 in
21:29 21.1 °F 10.5 °F 30.32 in SSW 5.2 mph 9.2 mph 63 % 0.00 in
21:31 21.1 °F 10.5 °F 30.32 in WSW 4.1 mph 6.9 mph 63 % 0.00 in
21:32 21.1 °F 10.5 °F 30.32 in SSW 3.6 mph 6.9 mph 63 % 0.00 in
21:37 21.0 °F 10.4 °F 30.32 in SSW 2.0 mph 3.5 mph 63 % 0.00 in
21:41 20.9 °F 10.3 °F 30.32 in SSW 3.0 mph 6.9 mph 63 % 0.00 in
21:43 20.9 °F 10.3 °F 30.32 in WSW 3.4 mph 6.0 mph 63 % 0.00 in
21:48 20.7 °F 10.1 °F 30.32 in SW 4.1 mph 6.9 mph 63 % 0.00 in
21:49 20.7 °F 10.1 °F 30.32 in SSW 4.4 mph 7.0 mph 63 % 0.00 in
21:54 20.7 °F 9.7 °F 30.32 in SSE 2.1 mph 9.2 mph 62 % 0.00 in
21:55 20.7 °F 9.7 °F 30.32 in WSW 3.0 mph 9.2 mph 62 % 0.00 in
22:00 20.7 °F 9.7 °F 30.32 in SW 5.3 mph 9.2 mph 62 % 0.00 in
22:03 20.7 °F 9.7 °F 30.32 in SSW 1.3 mph 3.5 mph 62 % 0.00 in
22:06 20.7 °F 9.7 °F 30.32 in SW 3.6 mph 4.0 mph 62 % 0.00 in
22:12 20.6 °F 9.6 °F 30.32 in WSW 1.8 mph 5.8 mph 62 % 0.00 in
22:15 20.6 °F 9.6 °F 30.32 in SSW 2.4 mph 4.6 mph 62 % 0.00 in
22:25 20.3 °F 9.7 °F 30.32 in SW 3.4 mph 5.8 mph 63 % 0.00 in
22:30 20.1 °F 9.5 °F 30.32 in SSW 4.3 mph 6.9 mph 63 % 0.00 in
22:31 20.1 °F 9.5 °F 30.32 in SSW 4.0 mph 6.9 mph 63 % 0.00 in
22:36 19.9 °F 9.4 °F 30.32 in SSW 5.0 mph 7.0 mph 63 % 0.00 in
22:40 19.8 °F 9.2 °F 30.32 in SSW 3.0 mph 7.0 mph 63 % 0.00 in
22:44 19.7 °F 9.1 °F 30.32 in SSW 4.0 mph 4.6 mph 63 % 0.00 in
22:49 19.6 °F 9.4 °F 30.32 in SSW 3.5 mph 5.0 mph 64 % 0.00 in
22:51 19.6 °F 9.4 °F 30.32 in SW 3.3 mph 5.8 mph 64 % 0.00 in
22:56 19.5 °F 9.3 °F 30.32 in SW 4.3 mph 10.4 mph 64 % 0.00 in
22:58 19.4 °F 9.2 °F 30.32 in WSW 2.3 mph 5.8 mph 64 % 0.00 in
23:00 19.4 °F 9.2 °F 30.32 in SW 1.4 mph 4.0 mph 64 % 0.00 in
23:05 19.3 °F 9.1 °F 30.32 in SSW 4.1 mph 11.5 mph 64 % 0.00 in
23:11 19.2 °F 9.0 °F 30.32 in SSW 3.0 mph 7.0 mph 64 % 0.00 in
23:15 19.2 °F 9.0 °F 30.33 in SW 2.9 mph 6.9 mph 64 % 0.00 in
23:20 19.2 °F 8.7 °F 30.33 in WSW 2.7 mph 4.6 mph 63 % 0.00 in
23:25 19.2 °F 8.7 °F 30.33 in SW 4.2 mph 7.0 mph 63 % 0.00 in
23:30 19.3 °F 8.8 °F 30.33 in SSW 4.9 mph 7.0 mph 63 % 0.00 in
23:31 19.3 °F 8.8 °F 30.33 in SSW 5.2 mph 6.9 mph 63 % 0.00 in
23:36 19.3 °F 8.8 °F 30.33 in SW 4.6 mph 6.9 mph 63 % 0.00 in
23:39 19.3 °F 8.8 °F 30.33 in SW 3.2 mph 4.6 mph 63 % 0.00 in
23:41 19.3 °F 8.8 °F 30.33 in SW 3.6 mph 7.0 mph 63 % 0.00 in
23:45 19.3 °F 8.8 °F 30.33 in SSW 5.4 mph 8.1 mph 63 % 0.00 in
23:50 19.3 °F 8.4 °F 30.32 in SW 4.5 mph 6.9 mph 62 % 0.00 in
23:54 19.4 °F 8.5 °F 30.32 in WSW 4.7 mph 11.5 mph 62 % 0.00 in
23:57 19.4 °F 8.5 °F 30.32 in West 5.1 mph 8.1 mph 62 % 0.00 in
Crab Meadow Weather
Compliments of Weather Underground - 3.5 mb

Script developed by  Jim McMurry - jmcmurry@mwt.net Adapted for the template by  Wim van der Kuil - Leuven-Template.eu

Weather Terms: Sleet - Sleet or ice pellets are solid grains of ice formed from the freezing of rain or the refreezing of melted snow, which bounce off the ground and other objects.